Aviation Digital Data Service (ADDS)

Output produced by METARs form (1010 UTC 19 November 2018)
found at http://www.aviationweather.gov/metar/data/
 
KDLH 191004Z 02005KT 3SM -SN FEW017 OVC032 M06/M09 A2999 RMK AO2 VIS 1 3/4 RWY 27 P0000 T10611089
KDLH 190955Z 02005KT 2SM -SN BR FEW010 SCT017 OVC028 M06/M08 A2998 RMK AO2 VIS 1 1/4 RWY 27 SLP180 P0002 T10611083
KDLH 190952Z 02007KT 2SM -SN BR FEW010 SCT017 OVC024 M06/M08 A2998 RMK AO2 VIS 1 1/4 RWY 27 P0002
KDLH 190941Z 03005KT 1 3/4SM -SN BR SCT010 SCT016 OVC024 M06/M08 A2998 RMK AO2 P0002 T10611083
KDLH 190930Z 02006KT 2SM -SN BR SCT014 OVC024 M06/M08 A2998 RMK AO2 VIS 1 RWY 27 P0001 T10611083
KDLH 190918Z 03005KT 1 1/2SM -SN BR BKN014 OVC026 M06/M08 A2998 RMK AO2 P0001 T10611083
KDLH 191001Z 1910/2006 02008KT 2SM -SN SCT010 OVC028 
     TEMPO 1910/1912 1SM -SN OVC015 
     FM191200 01010G17KT 5SM -SN SCT020 OVC030 
     FM191400 01010G17KT P6SM BKN030 
     FM191800 36009KT P6SM FEW035 SCT050